sensor_id;sensor_type;location;lat;lon;timestamp;temperature;humidity
2973;DHT22;1496;51.404;7.232;2023-03-26T11:15:05;7.30;99.90
2973;DHT22;1496;51.404;7.232;2023-03-26T11:17:49;7.30;99.90
2973;DHT22;1496;51.404;7.232;2023-03-26T11:20:53;7.40;99.90
2973;DHT22;1496;51.404;7.232;2023-03-26T11:26:50;7.50;99.90
2973;DHT22;1496;51.404;7.232;2023-03-26T11:29:37;7.60;99.90
2973;DHT22;1496;51.404;7.232;2023-03-26T11:32:25;7.40;99.90
2973;DHT22;1496;51.404;7.232;2023-03-26T11:35:06;7.50;99.90
2973;DHT22;1496;51.404;7.232;2023-03-26T11:37:53;7.60;99.90
2973;DHT22;1496;51.404;7.232;2023-03-26T11:40:33;7.60;99.90
2973;DHT22;1496;51.404;7.232;2023-03-26T11:43:06;7.60;99.90
2973;DHT22;1496;51.404;7.232;2023-03-26T11:45:35;7.70;99.90
2973;DHT22;1496;51.404;7.232;2023-03-26T11:48:42;7.70;99.90
2973;DHT22;1496;51.404;7.232;2023-03-26T11:51:12;7.70;99.90
2973;DHT22;1496;51.404;7.232;2023-03-26T11:53:40;7.80;99.90
2973;DHT22;1496;51.404;7.232;2023-03-26T12:04:29;7.70;99.90
2973;DHT22;1496;51.404;7.232;2023-03-26T12:07:14;7.90;99.90
2973;DHT22;1496;51.404;7.232;2023-03-26T12:09:58;7.90;99.90
2973;DHT22;1496;51.404;7.232;2023-03-26T12:12:35;7.90;99.90
2973;DHT22;1496;51.404;7.232;2023-03-26T12:15:18;7.90;99.90
2973;DHT22;1496;51.404;7.232;2023-03-26T12:17:52;7.80;99.90
2973;DHT22;1496;51.404;7.232;2023-03-26T12:25:39;8.00;99.90
2973;DHT22;1496;51.404;7.232;2023-03-26T12:31:03;8.00;99.90
2973;DHT22;1496;51.404;7.232;2023-03-26T12:34:12;8.10;99.90
2973;DHT22;1496;51.404;7.232;2023-03-26T12:36:52;8.10;99.90
2973;DHT22;1496;51.404;7.232;2023-03-26T12:39:41;8.10;99.90
2973;DHT22;1496;51.404;7.232;2023-03-26T12:42:32;8.20;99.90
2973;DHT22;1496;51.404;7.232;2023-03-26T12:44:59;8.30;99.90
2973;DHT22;1496;51.404;7.232;2023-03-26T12:47:31;8.40;99.90
2973;DHT22;1496;51.404;7.232;2023-03-26T12:50:00;8.30;99.90
2973;DHT22;1496;51.404;7.232;2023-03-26T12:52:54;8.30;99.90
2973;DHT22;1496;51.404;7.232;2023-03-26T12:55:34;8.30;99.90
2973;DHT22;1496;51.404;7.232;2023-03-26T12:58:23;8.30;99.90
2973;DHT22;1496;51.404;7.232;2023-03-26T13:07:00;8.20;99.90
2973;DHT22;1496;51.404;7.232;2023-03-26T13:09:34;8.20;99.90
2973;DHT22;1496;51.404;7.232;2023-03-26T13:12:27;8.40;99.90
2973;DHT22;1496;51.404;7.232;2023-03-26T13:17:34;8.40;99.90
2973;DHT22;1496;51.404;7.232;2023-03-26T13:20:35;8.40;99.90
2973;DHT22;1496;51.404;7.232;2023-03-26T13:23:44;8.40;99.90
2973;DHT22;1496;51.404;7.232;2023-03-26T13:29:33;8.50;99.90
2973;DHT22;1496;51.404;7.232;2023-03-26T13:37:41;8.60;99.90
2973;DHT22;1496;51.404;7.232;2023-03-26T13:43:43;8.60;99.90
2973;DHT22;1496;51.404;7.232;2023-03-26T13:49:02;8.70;99.90
2973;DHT22;1496;51.404;7.232;2023-03-26T13:54:27;8.70;99.90
2973;DHT22;1496;51.404;7.232;2023-03-26T13:57:03;8.70;99.90
2973;DHT22;1496;51.404;7.232;2023-03-26T13:59:47;8.60;99.90
2973;DHT22;1496;51.404;7.232;2023-03-26T14:02:35;8.50;99.90
2973;DHT22;1496;51.404;7.232;2023-03-26T14:05:15;8.50;99.90
2973;DHT22;1496;51.404;7.232;2023-03-26T14:07:55;8.50;99.90
2973;DHT22;1496;51.404;7.232;2023-03-26T14:10:27;8.40;99.90
2973;DHT22;1496;51.404;7.232;2023-03-26T14:13:00;8.40;99.90
2973;DHT22;1496;51.404;7.232;2023-03-26T14:15:41;8.40;99.90
2973;DHT22;1496;51.404;7.232;2023-03-26T14:21:19;8.50;99.90
2973;DHT22;1496;51.404;7.232;2023-03-26T14:36:03;8.20;99.90
2973;DHT22;1496;51.404;7.232;2023-03-26T14:50:07;8.20;99.90
2973;DHT22;1496;51.404;7.232;2023-03-26T14:52:54;8.20;99.90
2973;DHT22;1496;51.404;7.232;2023-03-26T14:55:45;8.20;99.90
2973;DHT22;1496;51.404;7.232;2023-03-26T15:28:59;8.00;99.90
2973;DHT22;1496;51.404;7.232;2023-03-26T15:43:08;7.80;99.90
2973;DHT22;1496;51.404;7.232;2023-03-26T15:48:58;7.70;99.90
2973;DHT22;1496;51.404;7.232;2023-03-26T15:54:21;7.60;99.90
2973;DHT22;1496;51.404;7.232;2023-03-26T15:57:11;7.50;99.90
2973;DHT22;1496;51.404;7.232;2023-03-26T15:59:55;7.60;99.90
2973;DHT22;1496;51.404;7.232;2023-03-26T16:16:20;7.70;99.90
2973;DHT22;1496;51.404;7.232;2023-03-26T16:18:54;7.60;99.90
2973;DHT22;1496;51.404;7.232;2023-03-26T16:29:24;7.40;99.90
2973;DHT22;1496;51.404;7.232;2023-03-26T16:32:15;7.30;99.90
2973;DHT22;1496;51.404;7.232;2023-03-26T16:37:47;7.30;99.90
2973;DHT22;1496;51.404;7.232;2023-03-26T16:46:07;7.20;99.90
2973;DHT22;1496;51.404;7.232;2023-03-26T16:52:01;7.20;99.90
2973;DHT22;1496;51.404;7.232;2023-03-26T16:54:56;7.20;99.90
2973;DHT22;1496;51.404;7.232;2023-03-26T16:57:26;7.20;99.90
2973;DHT22;1496;51.404;7.232;2023-03-26T17:06:11;7.30;99.90
2973;DHT22;1496;51.404;7.232;2023-03-26T17:08:47;7.30;99.90
2973;DHT22;1496;51.404;7.232;2023-03-26T17:14:46;7.30;99.90
2973;DHT22;1496;51.404;7.232;2023-03-26T17:22:45;7.20;99.90
2973;DHT22;1496;51.404;7.232;2023-03-26T17:25:52;7.20;99.90
2973;DHT22;1496;51.404;7.232;2023-03-26T17:31:18;7.10;99.90
2973;DHT22;1496;51.404;7.232;2023-03-26T17:37:38;7.10;99.90
2973;DHT22;1496;51.404;7.232;2023-03-26T17:43:07;7.10;99.90
2973;DHT22;1496;51.404;7.232;2023-03-26T17:45:38;7.00;99.90
2973;DHT22;1496;51.404;7.232;2023-03-26T17:48:25;7.10;99.90
2973;DHT22;1496;51.404;7.232;2023-03-26T17:50:56;7.10;99.90
2973;DHT22;1496;51.404;7.232;2023-03-26T17:53:29;7.10;99.90
2973;DHT22;1496;51.404;7.232;2023-03-26T17:56:02;7.10;99.90
2973;DHT22;1496;51.404;7.232;2023-03-26T17:58:43;7.00;99.90
2973;DHT22;1496;51.404;7.232;2023-03-26T18:01:41;7.00;99.90
2973;DHT22;1496;51.404;7.232;2023-03-26T18:04:27;7.00;99.90
2973;DHT22;1496;51.404;7.232;2023-03-26T18:18:42;6.80;99.90
2973;DHT22;1496;51.404;7.232;2023-03-26T18:20:48;6.80;99.90
2973;DHT22;1496;51.404;7.232;2023-03-26T18:23:29;6.80;99.90
2973;DHT22;1496;51.404;7.232;2023-03-26T18:26:22;6.70;20.70
2973;DHT22;1496;51.404;7.232;2023-03-26T18:28:51;6.70;1.00
2973;DHT22;1496;51.404;7.232;2023-03-26T18:31:25;6.70;1.00
2973;DHT22;1496;51.404;7.232;2023-03-26T18:34:05;6.70;1.00
2973;DHT22;1496;51.404;7.232;2023-03-26T18:36:37;6.70;1.00
2973;DHT22;1496;51.404;7.232;2023-03-26T18:39:10;6.70;1.00
2973;DHT22;1496;51.404;7.232;2023-03-26T18:41:39;6.70;1.00
2973;DHT22;1496;51.404;7.232;2023-03-26T18:44:14;6.70;1.00
2973;DHT22;1496;51.404;7.232;2023-03-26T18:46:45;6.70;1.00
2973;DHT22;1496;51.404;7.232;2023-03-26T18:49:15;6.70;1.00
2973;DHT22;1496;51.404;7.232;2023-03-26T18:51:47;6.70;1.00
2973;DHT22;1496;51.404;7.232;2023-03-26T18:54:18;6.70;6.80
2973;DHT22;1496;51.404;7.232;2023-03-26T18:56:47;6.70;1.00
2973;DHT22;1496;51.404;7.232;2023-03-26T18:59:24;6.70;1.00
2973;DHT22;1496;51.404;7.232;2023-03-26T19:02:05;6.60;1.00
2973;DHT22;1496;51.404;7.232;2023-03-26T19:04:35;6.60;1.00
2973;DHT22;1496;51.404;7.232;2023-03-26T19:07:12;6.60;1.00
2973;DHT22;1496;51.404;7.232;2023-03-26T19:09:41;6.60;1.00
2973;DHT22;1496;51.404;7.232;2023-03-26T19:12:27;6.60;99.90
2973;DHT22;1496;51.404;7.232;2023-03-26T19:15:09;6.50;99.90
2973;DHT22;1496;51.404;7.232;2023-03-26T19:17:44;6.50;99.90
2973;DHT22;1496;51.404;7.232;2023-03-26T19:20:26;6.50;99.90
2973;DHT22;1496;51.404;7.232;2023-03-26T19:22:54;6.50;99.90
2973;DHT22;1496;51.404;7.232;2023-03-26T19:25:27;6.50;99.90
2973;DHT22;1496;51.404;7.232;2023-03-26T19:27:55;6.50;99.90
2973;DHT22;1496;51.404;7.232;2023-03-26T19:30:32;6.50;99.90
2973;DHT22;1496;51.404;7.232;2023-03-26T19:33:13;6.40;99.90
2973;DHT22;1496;51.404;7.232;2023-03-26T19:35:50;6.30;99.90
2973;DHT22;1496;51.404;7.232;2023-03-26T19:38:28;6.40;99.90
2973;DHT22;1496;51.404;7.232;2023-03-26T19:41:03;6.40;99.90
2973;DHT22;1496;51.404;7.232;2023-03-26T19:43:34;6.30;99.90
2973;DHT22;1496;51.404;7.232;2023-03-26T19:46:00;6.40;99.90
2973;DHT22;1496;51.404;7.232;2023-03-26T19:48:33;6.40;99.90
2973;DHT22;1496;51.404;7.232;2023-03-26T19:51:04;6.40;99.90
2973;DHT22;1496;51.404;7.232;2023-03-26T19:53:34;6.30;99.90
2973;DHT22;1496;51.404;7.232;2023-03-26T19:56:10;6.30;99.90
2973;DHT22;1496;51.404;7.232;2023-03-26T19:58:41;6.20;99.90
2973;DHT22;1496;51.404;7.232;2023-03-26T20:01:22;6.20;99.90
2973;DHT22;1496;51.404;7.232;2023-03-26T20:03:50;6.20;99.90
2973;DHT22;1496;51.404;7.232;2023-03-26T20:06:21;6.20;99.90
2973;DHT22;1496;51.404;7.232;2023-03-26T20:08:50;6.20;99.90
2973;DHT22;1496;51.404;7.232;2023-03-26T20:13:59;6.20;99.90
2973;DHT22;1496;51.404;7.232;2023-03-26T20:16:33;6.10;99.90
2973;DHT22;1496;51.404;7.232;2023-03-26T20:19:00;6.10;99.90
2973;DHT22;1496;51.404;7.232;2023-03-26T20:21:29;6.10;99.90
2973;DHT22;1496;51.404;7.232;2023-03-26T20:23:58;6.10;99.90
2973;DHT22;1496;51.404;7.232;2023-03-26T20:26:27;6.10;99.90
2973;DHT22;1496;51.404;7.232;2023-03-26T20:29:00;6.10;99.90
2973;DHT22;1496;51.404;7.232;2023-03-26T20:31:29;6.10;99.90
2973;DHT22;1496;51.404;7.232;2023-03-26T20:33:58;6.00;99.90
2973;DHT22;1496;51.404;7.232;2023-03-26T20:36:27;6.00;99.90
2973;DHT22;1496;51.404;7.232;2023-03-26T20:38:53;6.00;99.90
2973;DHT22;1496;51.404;7.232;2023-03-26T20:41:25;5.90;99.90
2973;DHT22;1496;51.404;7.232;2023-03-26T20:43:54;5.90;99.90
2973;DHT22;1496;51.404;7.232;2023-03-26T20:46:28;5.90;99.90
2973;DHT22;1496;51.404;7.232;2023-03-26T20:48:58;5.90;99.90
2973;DHT22;1496;51.404;7.232;2023-03-26T20:51:37;5.80;99.90
2973;DHT22;1496;51.404;7.232;2023-03-26T20:54:21;5.90;99.90
2973;DHT22;1496;51.404;7.232;2023-03-26T20:56:54;5.80;99.90
2973;DHT22;1496;51.404;7.232;2023-03-26T20:59:22;5.80;99.90
2973;DHT22;1496;51.404;7.232;2023-03-26T21:02:00;5.70;99.90
2973;DHT22;1496;51.404;7.232;2023-03-26T21:04:31;5.70;99.90
2973;DHT22;1496;51.404;7.232;2023-03-26T21:06:57;5.60;99.90
2973;DHT22;1496;51.404;7.232;2023-03-26T21:09:34;5.50;99.90
2973;DHT22;1496;51.404;7.232;2023-03-26T21:12:28;5.40;99.90
2973;DHT22;1496;51.404;7.232;2023-03-26T21:15:26;5.40;99.90
2973;DHT22;1496;51.404;7.232;2023-03-26T21:25:47;5.20;99.90
2973;DHT22;1496;51.404;7.232;2023-03-26T21:28:45;5.20;99.90
2973;DHT22;1496;51.404;7.232;2023-03-26T21:31:19;5.10;99.90
2973;DHT22;1496;51.404;7.232;2023-03-26T21:33:47;5.00;99.90
2973;DHT22;1496;51.404;7.232;2023-03-26T21:36:16;5.10;99.90
2973;DHT22;1496;51.404;7.232;2023-03-26T21:38:45;5.00;99.90
2973;DHT22;1496;51.404;7.232;2023-03-26T21:41:49;5.00;99.90
2973;DHT22;1496;51.404;7.232;2023-03-26T21:44:16;5.00;99.90
2973;DHT22;1496;51.404;7.232;2023-03-26T21:46:55;4.90;99.90
2973;DHT22;1496;51.404;7.232;2023-03-26T21:49:28;4.90;99.90
2973;DHT22;1496;51.404;7.232;2023-03-26T21:52:00;4.80;99.90
2973;DHT22;1496;51.404;7.232;2023-03-26T22:04:57;4.60;99.90
2973;DHT22;1496;51.404;7.232;2023-03-26T22:10:14;4.60;99.90
2973;DHT22;1496;51.404;7.232;2023-03-26T22:12:42;4.60;99.90
2973;DHT22;1496;51.404;7.232;2023-03-26T22:15:09;4.60;99.90
2973;DHT22;1496;51.404;7.232;2023-03-26T22:17:40;4.60;99.90
2973;DHT22;1496;51.404;7.232;2023-03-26T22:20:10;4.50;99.90
2973;DHT22;1496;51.404;7.232;2023-03-26T22:22:41;4.60;99.90
2973;DHT22;1496;51.404;7.232;2023-03-26T22:25:19;4.40;99.90
2973;DHT22;1496;51.404;7.232;2023-03-26T22:27:48;4.30;99.90
2973;DHT22;1496;51.404;7.232;2023-03-26T22:30:16;4.40;99.90
2973;DHT22;1496;51.404;7.232;2023-03-26T22:32:44;4.30;99.90
2973;DHT22;1496;51.404;7.232;2023-03-26T22:35:12;4.40;99.90
2973;DHT22;1496;51.404;7.232;2023-03-26T22:37:40;4.40;99.90
2973;DHT22;1496;51.404;7.232;2023-03-26T22:40:08;4.40;99.90
2973;DHT22;1496;51.404;7.232;2023-03-26T22:42:35;4.30;99.90
2973;DHT22;1496;51.404;7.232;2023-03-26T22:45:03;4.40;99.90
2973;DHT22;1496;51.404;7.232;2023-03-26T22:47:29;4.30;99.90
2973;DHT22;1496;51.404;7.232;2023-03-26T22:49:58;4.30;99.90
2973;DHT22;1496;51.404;7.232;2023-03-26T22:52:27;4.30;99.90
2973;DHT22;1496;51.404;7.232;2023-03-26T22:54:56;4.30;99.90
2973;DHT22;1496;51.404;7.232;2023-03-26T22:57:23;4.20;99.90
2973;DHT22;1496;51.404;7.232;2023-03-26T22:59:50;4.20;99.90
2973;DHT22;1496;51.404;7.232;2023-03-26T23:02:20;4.30;99.90
2973;DHT22;1496;51.404;7.232;2023-03-26T23:04:52;4.30;99.90
2973;DHT22;1496;51.404;7.232;2023-03-26T23:07:22;4.20;99.90
2973;DHT22;1496;51.404;7.232;2023-03-26T23:09:49;4.20;99.90
2973;DHT22;1496;51.404;7.232;2023-03-26T23:12:17;4.30;99.90
2973;DHT22;1496;51.404;7.232;2023-03-26T23:14:45;4.20;99.90
2973;DHT22;1496;51.404;7.232;2023-03-26T23:17:19;4.10;99.90
2973;DHT22;1496;51.404;7.232;2023-03-26T23:19:47;4.10;99.90
2973;DHT22;1496;51.404;7.232;2023-03-26T23:22:15;4.20;99.90
2973;DHT22;1496;51.404;7.232;2023-03-26T23:24:41;4.10;99.90
2973;DHT22;1496;51.404;7.232;2023-03-26T23:27:08;4.10;99.90
2973;DHT22;1496;51.404;7.232;2023-03-26T23:29:35;4.10;99.90
2973;DHT22;1496;51.404;7.232;2023-03-26T23:32:04;4.20;99.90
2973;DHT22;1496;51.404;7.232;2023-03-26T23:34:31;4.10;99.90
2973;DHT22;1496;51.404;7.232;2023-03-26T23:37:00;4.20;99.90
2973;DHT22;1496;51.404;7.232;2023-03-26T23:39:26;4.20;99.90
2973;DHT22;1496;51.404;7.232;2023-03-26T23:41:54;4.20;99.90
2973;DHT22;1496;51.404;7.232;2023-03-26T23:44:21;4.20;99.90
2973;DHT22;1496;51.404;7.232;2023-03-26T23:46:49;4.10;99.90
2973;DHT22;1496;51.404;7.232;2023-03-26T23:49:22;4.00;99.90
2973;DHT22;1496;51.404;7.232;2023-03-26T23:51:49;4.10;99.90
2973;DHT22;1496;51.404;7.232;2023-03-26T23:54:17;4.00;99.90
2973;DHT22;1496;51.404;7.232;2023-03-26T23:56:45;3.80;99.90
2973;DHT22;1496;51.404;7.232;2023-03-26T23:59:14;3.90;99.90
